Time;durP1;ratioP1;P1;durP2;ratioP2;P2;SDS_P1;SDS_P2;PMS_P1;PMS_P2;Temp;Humidity;BMP_temperature;BMP_pressure;BME280_temperature;BME280_humidity;BME280_pressure;Samples;Min_cycle;Max_cycle;Signal;HPM_P1;HPM_P2
2022/04/28 00:01:07;;;;;;;2.67;1.60;;;;;;;14.94;55.66;99221.03;4964459;28;20061;-95
2022/04/28 00:03:32;;;;;;;4.13;1.70;;;;;;;15.02;54.16;99229.56;4964159;28;20454;-94
2022/04/28 00:05:58;;;;;;;5.22;1.83;;;;;;;14.99;53.88;99219.34;4948064;28;20031;-93
2022/04/28 00:08:24;;;;;;;6.25;1.50;;;;;;;15.05;52.86;99227.06;4946141;28;20085;-93
2022/04/28 00:10:49;;;;;;;8.38;1.30;;;;;;;15.12;52.84;99235.59;4947733;28;20035;-94
2022/04/28 00:13:18;;;;;;;4.97;1.70;;;;;;;15.15;54.06;99229.56;4947659;28;20099;-93
2022/04/28 00:15:44;;;;;;;9.48;2.05;;;;;;;15.09;54.13;99219.94;4964671;28;20046;-94
2022/04/28 00:18:10;;;;;;;2.95;1.45;;;;;;;15.23;53.91;99229.97;4962260;28;20026;-93
2022/04/28 00:20:35;;;;;;;5.57;2.00;;;;;;;15.16;54.00;99220.31;4947457;28;20026;-93
2022/04/28 00:23:03;;;;;;;4.70;1.60;;;;;;;15.23;53.51;99224.53;4963908;28;20003;-95
2022/04/28 00:25:32;;;;;;;5.10;1.40;;;;;;;15.24;52.00;99226.16;4964327;28;20031;-94
2022/04/28 00:27:59;;;;;;;7.10;1.70;;;;;;;15.21;52.67;99218.59;4964211;28;20015;-93
2022/04/28 00:30:24;;;;;;;4.43;1.60;;;;;;;15.19;53.33;99213.50;4946265;28;20480;-94
2022/04/28 00:32:50;;;;;;;6.68;2.00;;;;;;;15.27;53.26;99226.38;4947984;28;20093;-93
2022/04/28 00:35:16;;;;;;;6.50;1.40;;;;;;;15.32;52.73;99230.88;4963957;28;20033;-93
2022/04/28 00:37:41;;;;;;;4.97;1.70;;;;;;;15.30;52.54;99230.38;4980355;28;20050;-94
2022/04/28 00:40:07;;;;;;;4.13;1.63;;;;;;;15.33;51.11;99229.75;4946201;28;20031;-94
2022/04/28 00:42:33;;;;;;;3.85;1.58;;;;;;;15.27;51.14;99229.06;4947747;28;20090;-95
2022/04/28 00:44:58;;;;;;;5.47;1.60;;;;;;;15.33;52.85;99232.47;4962867;28;20054;-93
2022/04/28 00:50:38;;;;;;;2.78;1.55;;;;;;;15.25;51.52;99225.88;4963608;28;20023;-94
2022/04/28 00:52:56;;;;;;;2.80;1.35;;;;;;;15.22;51.95;99231.09;4979243;28;20400;-93
2022/04/28 00:55:21;;;;;;;19.58;2.38;;;;;;;15.23;52.87;99236.22;4945165;28;20023;-94
2022/04/28 00:57:48;;;;;;;5.20;1.52;;;;;;;15.20;51.82;99238.72;4947459;28;20508;-94
2022/04/28 01:00:14;;;;;;;3.33;1.30;;;;;;;15.22;51.40;99241.94;4946988;28;20085;-94
2022/04/28 01:02:39;;;;;;;2.72;1.30;;;;;;;15.23;52.04;99238.94;4963586;28;20033;-93
2022/04/28 01:05:05;;;;;;;2.20;1.30;;;;;;;15.31;52.02;99256.38;4945278;28;20552;-94
2022/04/28 01:07:30;;;;;;;2.78;1.30;;;;;;;15.26;50.76;99246.44;4946683;28;20019;-94
2022/04/28 01:09:56;;;;;;;6.47;1.80;;;;;;;15.22;52.48;99242.72;4946453;28;20026;-93
2022/04/28 01:12:24;;;;;;;5.32;1.42;;;;;;;15.29;51.90;99267.56;4963243;28;20034;-94
2022/04/28 01:14:50;;;;;;;4.90;1.60;;;;;;;15.28;51.85;99265.13;4947324;28;20035;-92
2022/04/28 01:17:16;;;;;;;3.35;1.27;;;;;;;15.31;50.63;99264.50;4961689;28;20069;-94
2022/04/28 01:19:41;;;;;;;3.72;1.27;;;;;;;15.36;49.60;99272.56;4945657;28;20481;-93
2022/04/28 01:22:07;;;;;;;9.05;2.10;;;;;;;15.24;56.51;99274.97;4961900;28;20078;-94
2022/04/28 01:24:33;;;;;;;7.30;2.38;;;;;;;15.07;57.10;99262.81;4946502;28;20106;-92
2022/04/28 01:26:58;;;;;;;3.88;2.22;;;;;;;15.08;58.34;99283.41;4962052;28;20122;-94
2022/04/28 01:29:24;;;;;;;8.45;2.40;;;;;;;15.13;57.30;99288.75;4962504;28;20082;-94
2022/04/28 01:31:50;;;;;;;6.88;2.70;;;;;;;15.06;57.47;99288.31;4963163;28;20101;-93
2022/04/28 01:34:15;;;;;;;10.23;2.75;;;;;;;15.00;58.86;99286.81;4962507;28;20038;-93
2022/04/28 01:36:41;;;;;;;12.80;2.90;;;;;;;14.76;59.09;99295.13;4961992;28;20413;-94
2022/04/28 01:39:09;;;;;;;6.95;2.50;;;;;;;14.61;60.21;99289.94;4963009;28;20035;-94
2022/04/28 01:41:35;;;;;;;5.18;2.45;;;;;;;14.48;61.45;99272.53;4947103;28;20030;-93
2022/04/28 01:44:01;;;;;;;5.15;2.60;;;;;;;14.48;61.50;99288.78;4962019;28;20424;-93
2022/04/28 01:46:28;;;;;;;10.93;2.70;;;;;;;14.37;62.08;99287.34;4945742;28;20035;-94
2022/04/28 01:48:53;;;;;;;8.32;2.42;;;;;;;14.37;61.29;99296.28;4945911;28;20038;-94
2022/04/28 01:56:46;;;;;;;3.58;1.83;;;;;;;14.39;55.01;99332.00;4964211;28;20165;-94
2022/04/28 01:59:12;;;;;;;10.48;2.22;;;;;;;14.37;53.69;99334.19;4944368;28;20027;-94
2022/04/28 02:01:37;;;;;;;5.28;1.75;;;;;;;14.41;53.25;99343.34;4943969;28;20030;-94
2022/04/28 02:04:03;;;;;;;6.57;1.60;;;;;;;14.49;53.38;99358.94;4960282;28;20026;-95
2022/04/28 02:06:28;;;;;;;2.60;1.27;;;;;;;14.42;53.59;99344.13;4959708;28;20027;-94
2022/04/28 02:08:54;;;;;;;4.30;1.50;;;;;;;14.40;53.76;99351.75;4959164;28;20030;-94
2022/04/28 02:11:19;;;;;;;4.25;1.45;;;;;;;14.43;54.13;99362.81;4958919;28;20050;-94
2022/04/28 02:13:45;;;;;;;7.60;1.73;;;;;;;14.46;55.85;99377.66;4961897;28;20478;-94
2022/04/28 02:16:10;;;;;;;3.45;1.50;;;;;;;14.46;56.01;99369.53;4961426;28;20096;-95
2022/04/28 02:18:36;;;;;;;3.42;1.50;;;;;;;14.39;55.84;99369.91;4960936;28;20039;-94
2022/04/28 02:21:02;;;;;;;6.43;1.70;;;;;;;14.43;56.19;99373.66;4944152;28;20030;-94
2022/04/28 02:23:27;;;;;;;5.50;1.83;;;;;;;14.53;56.77;99389.75;4961713;28;20026;-94
2022/04/28 02:25:53;;;;;;;4.25;1.45;;;;;;;14.57;57.19;99387.31;4961078;28;20046;-95
2022/04/28 02:28:18;;;;;;;4.82;1.60;;;;;;;14.46;58.56;99383.88;4960496;28;20485;-96
2022/04/28 02:30:44;;;;;;;7.15;1.65;;;;;;;14.25;58.82;99390.72;4960441;28;20477;-94
2022/04/28 02:33:09;;;;;;;5.53;1.92;;;;;;;14.18;59.94;99393.00;4961286;28;20477;-95
2022/04/28 02:35:35;;;;;;;5.13;2.10;;;;;;;14.06;60.68;99398.81;4945528;28;20031;-95
2022/04/28 02:38:01;;;;;;;5.68;2.20;;;;;;;13.90;61.39;99396.31;4944129;28;20030;-95
2022/04/28 02:40:26;;;;;;;5.55;2.00;;;;;;;13.85;61.28;99403.69;4944450;28;20499;-95
2022/04/28 02:42:52;;;;;;;6.43;2.30;;;;;;;13.87;61.48;99407.72;4945543;28;20034;-94
2022/04/28 02:45:17;;;;;;;8.68;2.13;;;;;;;13.79;61.13;99408.34;4962404;28;20068;-95
2022/04/28 02:47:43;;;;;;;6.75;2.33;;;;;;;13.80;61.61;99407.25;4960976;28;20019;-94
2022/04/28 02:50:11;;;;;;;5.68;2.50;;;;;;;13.77;62.55;99424.06;4961129;28;20084;-93
2022/04/28 02:52:38;;;;;;;5.00;2.40;;;;;;;13.71;61.94;99417.09;4945400;28;20029;-95
2022/04/28 02:55:04;;;;;;;6.85;2.60;;;;;;;13.64;62.96;99424.78;4961609;28;20042;-93
2022/04/28 02:57:29;;;;;;;7.90;2.33;;;;;;;13.62;62.82;99435.88;4945656;28;20039;-94
2022/04/28 02:59:55;;;;;;;9.40;2.88;;;;;;;13.52;63.27;99425.16;4960622;28;20066;-94
2022/04/28 03:02:20;;;;;;;9.15;2.67;;;;;;;13.61;62.65;99426.13;4960065;28;20035;-95
2022/04/28 03:04:46;;;;;;;11.68;2.72;;;;;;;13.60;62.91;99442.66;4961593;28;20031;-95
2022/04/28 03:12:39;;;;;;;10.93;2.78;;;;;;;13.70;62.82;99453.38;4963167;28;20098;-94
2022/04/28 03:15:06;;;;;;;10.98;3.15;;;;;;;13.62;62.99;99460.22;4945351;28;20031;-93
2022/04/28 03:17:33;;;;;;;9.40;3.35;;;;;;;13.69;62.74;99471.50;4947803;28;20054;-94
2022/04/28 03:19:58;;;;;;;7.63;3.60;;;;;;;13.52;63.47;99458.41;4965008;28;20034;-93
2022/04/28 03:22:24;;;;;;;9.02;3.10;;;;;;;13.59;63.41;99470.78;4964592;28;20034;-94
2022/04/28 03:24:49;;;;;;;6.53;2.80;;;;;;;13.60;63.31;99458.91;4964441;28;20027;-93
2022/04/28 03:27:15;;;;;;;11.75;3.05;;;;;;;13.55;64.49;99478.69;4964048;28;20023;-92
2022/04/28 03:29:41;;;;;;;8.30;2.83;;;;;;;13.54;64.07;99480.56;4965183;28;20030;-94
2022/04/28 03:32:08;;;;;;;10.50;3.10;;;;;;;13.48;64.14;99473.59;4965222;28;20058;-92
2022/04/28 03:34:34;;;;;;;14.10;3.35;;;;;;;13.57;64.63;99494.63;4964627;28;20026;-94
2022/04/28 03:36:59;;;;;;;13.60;4.63;;;;;;;13.58;64.88;99485.44;4947305;28;20026;-93
2022/04/28 03:39:25;;;;;;;7.35;3.10;;;;;;;13.68;64.27;99488.84;4964267;28;20425;-94
2022/04/28 03:41:50;;;;;;;8.65;2.90;;;;;;;13.77;64.20;99494.44;4964668;28;20031;-93
2022/04/28 03:44:19;;;;;;;13.77;3.97;;;;;;;13.73;65.51;99498.81;4963354;28;20097;-94
2022/04/28 03:46:44;;;;;;;11.35;4.15;;;;;;;13.63;66.72;99497.00;4963661;28;20034;-93
2022/04/28 03:49:10;;;;;;;15.93;4.30;;;;;;;13.67;67.18;99510.75;4964016;28;20458;-93
2022/04/28 03:51:35;;;;;;;10.18;4.00;;;;;;;13.59;67.29;99505.97;4964816;28;20027;-95
2022/04/28 03:54:01;;;;;;;16.05;4.07;;;;;;;13.59;68.37;99519.50;4963555;28;20011;-95
2022/04/28 03:56:30;;;;;;;11.85;4.30;;;;;;;13.66;67.84;99522.69;4979566;28;20034;-93
2022/04/28 03:58:57;;;;;;;8.27;4.05;;;;;;;13.61;68.08;99511.91;4977956;28;20413;-93
2022/04/28 04:01:23;;;;;;;10.52;4.30;;;;;;;13.78;67.90;99514.16;4983731;28;20038;-94
2022/04/28 04:03:48;;;;;;;14.30;4.78;;;;;;;13.88;67.88;99514.06;4967191;28;20081;-94
2022/04/28 04:06:14;;;;;;;12.20;4.50;;;;;;;13.89;68.00;99518.41;4982942;28;20034;-95
2022/04/28 04:08:39;;;;;;;12.20;4.78;;;;;;;13.91;68.21;99527.03;4981423;28;20085;-95
2022/04/28 04:11:04;;;;;;;14.43;5.10;;;;;;;13.92;68.33;99528.66;4958402;28;20034;-94
2022/04/28 04:13:30;;;;;;;12.43;5.15;;;;;;;13.84;69.07;99523.84;4966652;28;20037;-94
2022/04/28 04:16:01;;;;;;;13.45;7.53;;;;;;;13.89;69.07;99537.34;4968282;28;20023;-93
2022/04/28 04:18:27;;;;;;;18.67;6.75;;;;;;;13.87;69.25;99524.09;4983444;28;20050;-89
2022/04/28 04:20:53;;;;;;;18.90;6.43;;;;;;;14.04;69.42;99545.31;5001499;28;20034;-94
2022/04/28 04:23:19;;;;;;;17.35;5.80;;;;;;;14.04;68.49;99529.06;4986585;28;20029;-94
2022/04/28 04:25:45;;;;;;;16.35;6.80;;;;;;;13.98;69.92;99511.25;4986440;28;20502;-94
2022/04/28 04:28:10;;;;;;;30.98;6.85;;;;;;;14.22;69.36;99534.84;4967740;28;20049;-94
2022/04/28 04:33:20;;;;;;;17.92;6.80;;;;;;;14.18;69.57;99517.56;4991898;28;20032;-95
2022/04/28 04:35:46;;;;;;;18.23;7.10;;;;;;;14.25;69.18;99531.53;4984978;28;20029;-93
2022/04/28 04:38:12;;;;;;;11.98;6.43;;;;;;;14.39;68.63;99529.75;4986092;28;20030;-94
2022/04/28 04:40:37;;;;;;;27.67;8.10;;;;;;;14.43;68.66;99522.66;4969252;28;20030;-95
2022/04/28 04:43:05;;;;;;;28.48;6.68;;;;;;;14.63;68.18;99521.63;4969418;28;20399;-95
2022/04/28 04:45:30;;;;;;;36.92;8.55;;;;;;;14.64;68.98;99539.47;4986656;28;20022;-93
2022/04/28 04:47:56;;;;;;;16.63;6.80;;;;;;;14.62;68.00;99525.41;4965271;28;20503;-91
2022/04/28 04:50:23;;;;;;;18.02;9.00;;;;;;;14.67;68.51;99549.75;4981587;28;20022;-92
2022/04/28 04:52:49;;;;;;;21.33;8.25;;;;;;;14.88;67.31;99544.03;4984120;28;20026;-91
2022/04/28 04:55:16;;;;;;;13.95;6.70;;;;;;;14.86;67.50;99538.94;4985240;28;20103;-95
2022/04/28 04:57:41;;;;;;;19.75;8.02;;;;;;;14.90;67.33;99544.53;4983342;28;20082;-92
2022/04/28 05:00:08;;;;;;;24.33;7.90;;;;;;;15.00;67.52;99543.59;4984247;28;20077;-93
2022/04/28 05:02:33;;;;;;;21.48;7.03;;;;;;;15.13;67.45;99565.38;4983421;28;20023;-93
2022/04/28 05:04:59;;;;;;;25.55;7.22;;;;;;;14.79;68.11;99527.63;4985275;28;20029;-94
2022/04/28 05:07:31;;;;;;;14.65;6.45;;;;;;;14.87;67.55;99539.72;4983789;28;20042;-93
2022/04/28 05:09:56;;;;;;;22.63;7.75;;;;;;;14.95;68.00;99556.13;4984110;28;20022;-94
2022/04/28 05:12:23;;;;;;;15.60;8.23;;;;;;;14.91;67.97;99546.97;4952940;29;20051;-94
2022/04/28 05:14:50;;;;;;;23.58;10.57;;;;;;;14.84;67.90;99532.19;4978257;28;20111;-92
2022/04/28 05:17:16;;;;;;;10.50;6.57;;;;;;;15.07;66.72;99552.19;4946720;28;20055;-93
2022/04/28 05:19:43;;;;;;;17.80;6.63;;;;;;;15.05;66.95;99546.25;4962097;28;20135;-92
2022/04/28 05:22:09;;;;;;;19.65;8.07;;;;;;;15.14;66.93;99566.97;4962619;29;20043;-95
2022/04/28 05:24:34;;;;;;;10.70;6.65;;;;;;;15.20;66.38;99575.84;4948395;29;20042;-94
2022/04/28 05:27:00;;;;;;;9.27;5.40;;;;;;;15.12;66.23;99569.19;4961848;28;20046;-94
2022/04/28 05:29:40;;;;;;;9.13;6.22;;;;;;;15.28;66.40;99593.38;4962983;28;20023;-96
2022/04/28 05:32:19;;;;;;;23.15;8.50;;;;;;;15.16;66.45;99586.47;4976660;28;20095;-93
2022/04/28 05:34:50;;;;;;;22.55;6.68;;;;;;;15.00;67.03;99562.59;4966129;29;20060;-96
2022/04/28 05:37:15;;;;;;;15.60;6.95;;;;;;;15.04;67.29;99577.97;4945753;29;20023;-90
2022/04/28 05:39:41;;;;;;;11.77;5.60;;;;;;;15.02;66.56;99580.16;4959060;28;20078;-92
2022/04/28 05:42:07;;;;;;;14.02;6.65;;;;;;;14.80;67.77;99569.13;4945011;29;20026;-88
2022/04/28 05:47:30;;;;;;;16.63;6.25;;;;;;;15.09;67.54;99594.19;4973382;28;20171;-90
2022/04/28 05:49:58;;;;;;;9.52;5.90;;;;;;;15.01;66.84;99585.91;4982323;28;20458;-90
2022/04/28 06:02:29;;;;;;;12.57;6.63;;;;;;;15.19;67.04;99630.38;4965953;28;20082;-89
2022/04/28 06:04:55;;;;;;;15.32;8.30;;;;;;;15.22;67.11;99616.25;4958638;29;20027;-90
2022/04/28 06:07:21;;;;;;;31.15;9.10;;;;;;;15.16;67.83;99624.44;4942585;29;20050;-91
2022/04/28 06:09:46;;;;;;;9.73;5.75;;;;;;;15.11;67.28;99608.25;4961435;29;20042;-93
2022/04/28 06:12:12;;;;;;;8.07;5.65;;;;;;;15.22;67.92;99614.34;4955498;28;20420;-90
2022/04/28 06:14:38;;;;;;;11.18;7.20;;;;;;;15.15;68.83;99597.63;4965829;28;20058;-91
2022/04/28 06:17:41;;;;;;;14.35;7.00;;;;;;;15.51;68.11;99645.94;4968337;28;20038;-96
2022/04/28 06:20:07;;;;;;;10.15;6.18;;;;;;;15.45;67.32;99622.69;4968624;28;20030;-92
2022/04/28 06:22:35;;;;;;;9.25;5.90;;;;;;;15.54;67.96;99629.06;4998040;28;20027;-93
2022/04/28 06:25:01;;;;;;;10.82;5.72;;;;;;;15.44;67.00;99616.47;4966911;28;20050;-93
2022/04/28 06:27:30;;;;;;;11.90;5.53;;;;;;;15.31;67.93;99623.41;4972945;28;20374;-92
2022/04/28 06:29:57;;;;;;;33.40;14.55;;;;;;;15.35;68.78;99632.59;4980345;28;20018;-94
2022/04/28 06:32:27;;;;;;;17.98;10.57;;;;;;;15.30;69.12;99624.53;4971316;28;20408;-95
2022/04/28 06:38:27;;;;;;;9.52;5.43;;;;;;;15.63;66.69;99659.06;4912369;29;20048;-94
2022/04/28 06:41:11;;;;;;;22.67;6.63;;;;;;;15.73;67.80;99670.59;4896643;29;20043;-95
2022/04/28 06:43:39;;;;;;;15.73;6.30;;;;;;;15.62;67.51;99660.16;4901950;29;20085;-93
2022/04/28 06:46:12;;;;;;;14.50;5.03;;;;;;;15.70;66.31;99659.50;4895234;29;20040;-91
2022/04/28 06:48:40;;;;;;;14.23;6.47;;;;;;;15.55;66.92;99636.91;4922087;29;20042;-91
2022/04/28 06:51:07;;;;;;;13.40;5.32;;;;;;;15.65;66.37;99654.16;4972090;28;20047;-94
2022/04/28 06:53:32;;;;;;;25.67;7.75;;;;;;;15.71;66.64;99650.25;4950005;28;20031;-95
2022/04/28 06:56:02;;;;;;;8.88;5.40;;;;;;;15.85;65.32;99659.28;4949030;29;20517;-96
2022/04/28 06:58:28;;;;;;;11.20;4.28;;;;;;;15.80;64.65;99651.22;4950092;29;20126;-94
2022/04/28 07:00:55;;;;;;;15.13;7.35;;;;;;;15.76;65.53;99653.72;4947851;29;20043;-93
2022/04/28 07:03:21;;;;;;;19.05;6.30;;;;;;;15.87;65.76;99664.41;4933587;29;20028;-94
2022/04/28 07:08:39;;;;;;;10.30;4.20;;;;;;;15.71;64.70;99682.84;4932712;28;20041;-94
2022/04/28 07:11:05;;;;;;;13.55;5.35;;;;;;;15.46;65.85;99654.16;4955316;28;20047;-95
2022/04/28 07:13:31;;;;;;;10.18;4.75;;;;;;;15.47;65.43;99666.63;4954739;28;20422;-95
2022/04/28 07:15:58;;;;;;;6.82;4.00;;;;;;;15.56;64.85;99673.00;4967038;28;20027;-96
2022/04/28 07:18:23;;;;;;;8.90;4.50;;;;;;;15.59;64.95;99674.34;4955274;28;20596;-94
2022/04/28 07:20:58;;;;;;;13.63;5.35;;;;;;;15.50;65.98;99676.88;4956981;28;20058;-94
2022/04/28 07:23:23;;;;;;;11.93;6.03;;;;;;;15.40;66.90;99666.16;4970421;28;20049;-96
2022/04/28 07:25:54;;;;;;;7.05;4.22;;;;;;;15.49;65.66;99673.38;4969290;28;20085;-96
2022/04/28 07:28:21;;;;;;;15.65;8.85;;;;;;;15.59;66.08;99699.56;4958867;28;20027;-95
2022/04/28 07:30:47;;;;;;;31.55;5.88;;;;;;;15.61;66.41;99686.50;4952977;28;20035;-95
2022/04/28 07:33:25;;;;;;;9.95;5.07;;;;;;;15.70;65.20;99687.44;4970388;28;20069;-95
2022/04/28 07:36:17;;;;;;;6.45;4.22;;;;;;;15.56;65.27;99670.28;4971468;28;20129;-96
2022/04/28 07:38:54;;;;;;;26.05;16.80;;;;;;;15.59;65.22;99679.75;4975707;28;20038;-95
2022/04/28 07:41:23;;;;;;;24.95;17.23;;;;;;;15.56;65.97;99683.84;4985106;28;20091;-94
2022/04/28 07:43:51;;;;;;;8.55;6.03;;;;;;;15.62;65.30;99685.38;4966641;29;20043;-94
2022/04/28 07:46:16;;;;;;;17.55;12.65;;;;;;;15.68;66.46;99703.22;4965632;29;20023;-91
2022/04/28 07:48:54;;;;;;;20.77;12.20;;;;;;;15.64;65.85;99683.19;5001880;28;20038;-93
2022/04/28 07:51:37;;;;;;;10.00;6.35;;;;;;;15.53;66.11;99681.75;4968902;28;20087;-93
2022/04/28 07:54:09;;;;;;;13.13;6.45;;;;;;;15.42;66.58;99683.78;4985151;28;20055;-95
2022/04/28 07:56:40;;;;;;;17.60;7.25;;;;;;;15.52;67.05;99705.38;4965856;28;20015;-95
2022/04/28 07:59:09;;;;;;;9.38;7.40;;;;;;;15.47;66.80;99704.63;4953514;29;20096;-92
2022/04/28 08:01:37;;;;;;;13.15;7.75;;;;;;;15.28;67.46;99704.59;4967729;29;20059;-93
2022/04/28 08:04:04;;;;;;;11.13;7.90;;;;;;;15.26;68.20;99728.50;4984644;28;20454;-91
2022/04/28 08:06:33;;;;;;;12.63;8.68;;;;;;;15.15;68.60;99722.41;4965084;29;20482;-93
2022/04/28 08:09:00;;;;;;;14.23;8.43;;;;;;;15.01;69.29;99718.78;4948048;29;20023;-95
2022/04/28 08:11:31;;;;;;;14.18;8.50;;;;;;;14.98;68.84;99712.00;4965463;28;20050;-95
2022/04/28 08:13:57;;;;;;;12.32;8.48;;;;;;;15.02;68.90;99723.88;4970508;28;20050;-95
2022/04/28 08:16:26;;;;;;;21.13;13.60;;;;;;;14.83;69.44;99717.63;4950200;29;20036;-95
2022/04/28 08:19:02;;;;;;;11.82;7.95;;;;;;;14.78;70.28;99751.00;4968223;28;20058;-94
2022/04/28 08:21:28;;;;;;;15.18;7.90;;;;;;;14.66;69.92;99724.28;4953336;28;20099;-95
2022/04/28 08:23:57;;;;;;;9.23;6.95;;;;;;;14.61;69.89;99728.94;4968720;28;20035;-95
2022/04/28 08:26:22;;;;;;;13.57;7.55;;;;;;;14.72;69.85;99744.84;4951965;29;20037;-94
2022/04/28 08:28:53;;;;;;;9.90;6.60;;;;;;;14.52;69.68;99717.91;4953311;28;20027;-96
2022/04/28 08:31:19;;;;;;;10.40;6.40;;;;;;;14.45;69.54;99720.16;4968980;29;20319;-95
2022/04/28 08:33:48;;;;;;;8.95;6.47;;;;;;;14.62;69.56;99749.56;4955899;28;20139;-92
2022/04/28 08:36:16;;;;;;;11.02;6.10;;;;;;;14.48;70.11;99741.25;4964252;29;20031;-94
2022/04/28 08:38:48;;;;;;;11.40;5.22;;;;;;;14.49;70.00;99761.84;4949388;28;20027;-90
2022/04/28 08:41:24;;;;;;;;;;;;;;;14.54;69.95;99764.50;4950054;29;20143;-93
2022/04/28 08:43:59;;;;;;;6.32;4.40;;;;;;;14.49;69.30;99759.13;4962130;28;19918;-94
2022/04/28 08:46:53;;;;;;;6.85;4.60;;;;;;;14.38;68.26;99735.91;4932638;29;20024;-94
2022/04/28 08:49:21;;;;;;;11.38;5.93;;;;;;;14.63;68.12;99772.84;4946971;28;20077;-94
2022/04/28 08:51:48;;;;;;;6.25;4.50;;;;;;;14.41;67.16;99765.16;4981450;28;20086;-93
2022/04/28 08:54:16;;;;;;;6.20;3.97;;;;;;;14.34;66.82;99750.03;4979161;28;20031;-92
2022/04/28 08:56:43;;;;;;;7.03;3.75;;;;;;;14.18;68.06;99761.28;4964797;28;20031;-93
2022/04/28 08:59:23;;;;;;;4.80;3.22;;;;;;;14.27;67.15;99757.66;4964515;29;20031;-93
2022/04/28 09:01:53;;;;;;;8.85;4.55;;;;;;;14.52;66.93;99788.34;4948883;29;20486;-92
2022/04/28 09:04:23;;;;;;;6.97;5.13;;;;;;;14.40;66.68;99760.81;4965332;28;20121;-94
2022/04/28 09:06:55;;;;;;;7.05;4.45;;;;;;;14.59;66.20;99782.63;4952516;29;20099;-95
2022/04/28 09:10:19;;;;;;;11.05;4.93;;;;;;;14.66;65.91;99780.41;4968559;28;20031;-96
2022/04/28 09:14:08;;;;;;;12.73;9.65;;;;;;;14.73;64.76;99789.84;4997146;28;20046;-89
2022/04/28 09:16:15;;;;;;;;;;;;;;;;;;;;;
2022/04/28 09:18:58;;;;;;;5.68;3.95;;;;;;;14.44;64.99;99761.88;4907597;29;20047;-96
2022/04/28 09:21:23;;;;;;;6.35;3.47;;;;;;;14.43;64.73;99771.91;4994528;28;20037;-90
2022/04/28 09:23:53;;;;;;;8.82;4.68;;;;;;;14.43;64.85;99762.97;4972370;28;20026;-90
2022/04/28 09:26:18;;;;;;;9.43;3.90;;;;;;;14.57;64.59;99790.22;4983780;28;20117;-91
2022/04/28 09:28:44;;;;;;;8.27;4.32;;;;;;;14.35;65.74;99773.31;4970385;28;20477;-91
2022/04/28 09:31:10;;;;;;;8.57;3.83;;;;;;;14.36;65.03;99771.44;4966243;28;20077;-88
2022/04/28 09:33:40;;;;;;;17.85;12.65;;;;;;;14.48;64.59;99781.88;4986519;28;20564;-92
2022/04/28 09:36:09;;;;;;;23.70;11.93;;;;;;;14.42;65.21;99764.88;4991242;28;20057;-92
2022/04/28 09:38:35;;;;;;;10.75;4.40;;;;;;;14.78;64.74;99809.84;4968370;28;20070;-91
2022/04/28 09:43:51;;;;;;;7.40;3.58;;;;;;;14.71;63.62;99793.91;4943056;29;20162;-90
2022/04/28 09:46:22;;;;;;;24.23;7.63;;;;;;;14.63;65.29;99800.75;4928779;29;20039;-89
2022/04/28 09:48:49;;;;;;;6.50;4.05;;;;;;;14.61;64.54;99791.28;4938676;28;20023;-88
2022/04/28 09:51:15;;;;;;;11.27;5.18;;;;;;;14.70;63.76;99776.03;4956177;29;20512;-87
2022/04/28 09:53:47;;;;;;;15.75;4.63;;;;;;;14.71;64.74;99791.19;4917761;29;20102;-93
2022/04/28 09:56:13;;;;;;;9.70;4.38;;;;;;;14.62;64.86;99771.22;4924934;29;20096;-95
2022/04/28 09:58:40;;;;;;;6.35;3.70;;;;;;;14.85;63.38;99802.19;4919232;29;20043;-94
2022/04/28 10:01:08;;;;;;;20.70;15.13;;;;;;;15.08;63.32;99795.97;4911791;29;20134;-93
2022/04/28 10:03:58;;;;;;;11.68;4.95;;;;;;;15.15;63.89;99801.88;4931371;29;20043;-94
2022/04/28 10:06:26;;;;;;;8.88;3.97;;;;;;;15.00;63.44;99776.81;4949122;29;20051;-94
2022/04/28 10:08:52;;;;;;;7.15;3.53;;;;;;;14.89;63.31;99787.75;4963600;29;20031;-92
2022/04/28 10:11:29;;;;;;;15.60;5.72;;;;;;;15.07;62.81;99775.38;4963674;28;20572;-95
2022/04/28 10:13:55;;;;;;;9.30;3.50;;;;;;;15.11;61.58;99778.31;4982481;28;20035;-94
2022/04/28 10:16:22;;;;;;;6.13;4.30;;;;;;;15.41;61.66;99800.75;4961453;28;20050;-89
2022/04/28 10:19:20;;;;;;;8.98;4.88;;;;;;;15.21;61.45;99761.09;4949586;28;20058;-93
2022/04/28 10:21:59;;;;;;;6.95;4.20;;;;;;;15.50;60.35;99799.84;4979983;28;20038;-94
2022/04/28 10:33:18;;;;;;;;;;;;;;;;;;;;;
2022/04/28 10:35:56;;;;;;;5.72;3.72;;;;;;;15.72;60.50;99809.34;4982255;28;20114;-91
2022/04/28 10:38:31;;;;;;;4.85;2.50;;;;;;;15.41;59.66;99777.13;4987504;28;20036;-93
2022/04/28 10:41:16;;;;;;;8.38;3.17;;;;;;;15.53;60.36;99784.88;4969758;28;20073;-90
2022/04/28 10:43:43;;;;;;;6.60;3.80;;;;;;;15.57;60.18;99783.19;4962402;28;20037;-93
2022/04/28 10:46:09;;;;;;;4.63;2.95;;;;;;;15.78;59.94;99810.91;4984022;28;20041;-95
2022/04/28 10:51:42;;;;;;;5.15;2.50;;;;;;;15.60;59.26;99779.06;4987848;28;20144;-95
2022/04/28 10:54:09;;;;;;;8.48;2.55;;;;;;;15.71;58.71;99796.88;4985682;28;20048;-93
2022/04/28 10:57:02;;;;;;;8.45;3.35;;;;;;;15.84;59.47;99817.09;4979727;28;20122;-93
2022/04/28 10:59:34;;;;;;;3.22;2.20;;;;;;;15.61;58.40;99786.94;4964628;28;20110;-94
2022/04/28 11:02:15;;;;;;;8.43;4.03;;;;;;;15.85;58.25;99819.47;4978408;28;20126;-92
2022/04/28 11:04:44;;;;;;;6.88;3.70;;;;;;;15.89;59.28;99800.69;4964937;29;20122;-95
2022/04/28 11:07:25;;;;;;;7.75;2.13;;;;;;;15.90;58.00;99797.69;4963998;29;20038;-90
2022/04/28 11:10:20;;;;;;;5.53;2.63;;;;;;;15.78;59.03;99781.03;4979289;28;20066;-92
2022/04/28 11:12:51;;;;;;;4.45;1.95;;;;;;;15.99;57.50;99791.63;4944656;28;20043;-92
2022/04/28 11:15:17;;;;;;;12.23;9.20;;;;;;;15.95;57.43;99786.75;4950706;28;20030;-92
2022/04/28 11:17:44;;;;;;;40.80;25.80;;;;;;;15.95;57.20;99786.75;4998554;28;20027;-93
2022/04/28 11:20:18;;;;;;;14.55;8.30;;;;;;;15.91;57.85;99801.22;4966728;28;20030;-92
2022/04/28 11:22:51;;;;;;;4.20;2.63;;;;;;;16.06;57.80;99801.00;4952707;28;20038;-91
2022/04/28 11:25:19;;;;;;;2.90;1.70;;;;;;;16.02;57.74;99788.28;4951455;29;20035;-93
2022/04/28 11:27:48;;;;;;;11.55;4.90;;;;;;;16.23;57.18;99781.47;4949417;29;20067;-94
2022/04/28 11:30:19;;;;;;;2.00;1.50;;;;;;;16.29;55.47;99765.88;4950506;28;20090;-95
2022/04/28 11:33:07;;;;;;;2.65;1.95;;;;;;;16.63;55.99;99784.59;4953260;28;20035;-94
2022/04/28 11:35:46;;;;;;;3.20;1.73;;;;;;;16.70;54.70;99776.06;4972786;28;20050;-94
2022/04/28 11:38:38;;;;;;;4.45;1.60;;;;;;;16.92;54.35;99789.03;4971282;28;20034;-94
2022/04/28 11:41:11;;;;;;;3.65;1.65;;;;;;;17.01;54.20;99783.69;4965807;28;20030;-94
2022/04/28 11:43:37;;;;;;;1.88;1.48;;;;;;;16.91;54.16;99779.22;4936873;29;20514;-93
2022/04/28 11:52:37;;;;;;;3.00;1.60;;;;;;;17.01;54.36;99776.31;4939893;29;20063;-96
2022/04/28 11:55:08;;;;;;;3.20;2.50;;;;;;;17.00;54.07;99773.94;4979620;28;20034;-93
2022/04/28 11:57:36;;;;;;;3.25;1.60;;;;;;;17.09;53.29;99769.38;4964837;29;20146;-91
2022/04/28 12:00:03;;;;;;;1.98;1.40;;;;;;;17.13;53.40;99779.34;4978749;28;20438;-91
2022/04/28 12:02:46;;;;;;;2.42;1.70;;;;;;;17.05;53.84;99760.22;4960808;28;20083;-93
2022/04/28 12:05:37;;;;;;;;;;;;;;;;;;;;;
2022/04/28 12:08:06;;;;;;;3.53;2.28;;;;;;;16.85;54.80;99743.19;4985805;28;20101;-94
2022/04/28 12:19:49;;;;;;;;;;;;;;;17.23;53.98;99780.28;4920516;29;20036;-94
2022/04/28 12:26:39;;;;;;;3.78;2.58;;;;;;;17.10;54.25;99746.50;4854145;29;20042;-95
2022/04/28 12:29:11;;;;;;;9.20;5.78;;;;;;;17.17;52.84;99753.16;4832817;29;20038;-93
2022/04/28 12:31:37;;;;;;;6.47;5.20;;;;;;;17.17;53.61;99774.13;4904608;29;20507;-94
2022/04/28 12:34:22;;;;;;;4.68;1.50;;;;;;;17.02;53.24;99749.94;4944396;29;20039;-92
2022/04/28 12:37:00;;;;;;;5.50;2.80;;;;;;;17.05;53.54;99744.69;4948798;29;20027;-95
2022/04/28 12:39:59;;;;;;;2.80;1.92;;;;;;;17.05;53.25;99735.72;4984686;28;20041;-95
2022/04/28 12:42:29;;;;;;;1.75;1.50;;;;;;;16.99;53.54;99740.44;4948473;28;20039;-92
2022/04/28 12:45:27;;;;;;;2.35;1.40;;;;;;;16.98;53.80;99757.91;4969746;28;20038;-94
2022/04/28 13:01:46;;;;;;;2.80;1.85;;;;;;;16.59;55.30;99758.31;4953229;29;20160;-96
2022/04/28 13:04:41;;;;;;;28.83;25.27;;;;;;;16.67;55.32;99761.16;4905522;29;20043;-94
2022/04/28 13:07:10;;;;;;;113.00;82.60;;;;;;;16.71;54.59;99750.50;4907279;29;20035;-94
2022/04/28 13:09:35;;;;;;;19.52;6.40;;;;;;;16.68;55.69;99765.47;4917294;29;20031;-92